Time;durP1;ratioP1;P1;durP2;ratioP2;P2;SDS_P1;SDS_P2;PMS_P1;PMS_P2;Temp;Humidity;BMP_temperature;BMP_pressure;BME280_temperature;BME280_humidity;BME280_pressure;Samples;Min_cycle;Max_cycle;Signal;HPM_P1;HPM_P2
2021/05/29 00:01:59;;;;;;;27.38;13.70;;;;;;;;;;5011500;28;20520;-58
2021/05/29 00:04:26;;;;;;;22.95;12.65;;;;;;;;;;5014520;28;20510;-59
2021/05/29 00:06:52;;;;;;;25.30;13.55;;;;;;;;;;5011403;28;20053;-59
2021/05/29 00:09:18;;;;;;;23.70;13.23;;;;;;;;;;5011350;28;20507;-59
2021/05/29 00:11:45;;;;;;;27.77;15.23;;;;;;;;;;5008713;28;20104;-58
2021/05/29 00:14:11;;;;;;;27.42;12.68;;;;;;;;;;5012524;28;20128;-59
2021/05/29 00:16:38;;;;;;;26.48;14.60;;;;;;;;;;5014544;28;20058;-58
2021/05/29 00:19:04;;;;;;;24.50;12.73;;;;;;;;;;5012121;28;20054;-59
2021/05/29 00:21:31;;;;;;;24.98;14.30;;;;;;;;;;5011436;28;20099;-59
2021/05/29 00:23:57;;;;;;;23.80;13.25;;;;;;;;;;5011072;28;20073;-59
2021/05/29 00:26:25;;;;;;;26.30;14.25;;;;;;;;;;5010900;28;20496;-59
2021/05/29 00:28:51;;;;;;;26.17;14.38;;;;;;;;;;5013360;28;20073;-59
2021/05/29 00:31:18;;;;;;;27.67;12.98;;;;;;;;;;5012870;28;20092;-59
2021/05/29 00:33:44;;;;;;;29.35;15.02;;;;;;;;;;5011118;28;20042;-59
2021/05/29 00:36:10;;;;;;;24.80;15.13;;;;;;;;;;5011174;28;20046;-59
2021/05/29 00:38:37;;;;;;;25.25;13.13;;;;;;;;;;5012787;28;20073;-59
2021/05/29 00:41:07;;;;;;;24.88;14.10;;;;;;;;;;5011496;28;20050;-59
2021/05/29 00:43:34;;;;;;;26.75;13.95;;;;;;;;;;5010649;28;20053;-59
2021/05/29 00:46:01;;;;;;;31.42;14.88;;;;;;;;;;5008044;28;20108;-59
2021/05/29 00:48:27;;;;;;;24.80;13.48;;;;;;;;;;5010748;28;20061;-59
2021/05/29 00:50:59;;;;;;;31.30;14.63;;;;;;;;;;5010525;28;20050;-59
2021/05/29 00:53:29;;;;;;;24.52;14.13;;;;;;;;;;5011785;28;20057;-59
2021/05/29 00:55:56;;;;;;;27.20;14.27;;;;;;;;;;5012105;28;20056;-59
2021/05/29 00:58:24;;;;;;;22.13;13.60;;;;;;;;;;5013306;28;20054;-59
2021/05/29 01:00:50;;;;;;;23.83;13.68;;;;;;;;;;5010410;28;20061;-59
2021/05/29 01:03:17;;;;;;;29.23;14.77;;;;;;;;;;5010485;28;20111;-59
2021/05/29 01:05:43;;;;;;;25.05;13.43;;;;;;;;;;5010190;28;20128;-59
2021/05/29 01:08:10;;;;;;;25.88;13.77;;;;;;;;;;5010667;28;20057;-58
2021/05/29 01:10:37;;;;;;;21.48;12.65;;;;;;;;;;5013839;28;20056;-59
2021/05/29 01:13:04;;;;;;;23.35;12.35;;;;;;;;;;5012411;28;20057;-59
2021/05/29 01:15:36;;;;;;;21.40;11.55;;;;;;;;;;5010410;28;20103;-59
2021/05/29 01:18:04;;;;;;;26.85;12.18;;;;;;;;;;5010233;28;20108;-59
2021/05/29 01:20:31;;;;;;;19.52;11.60;;;;;;;;;;5010063;28;20038;-59
2021/05/29 01:22:58;;;;;;;20.65;10.80;;;;;;;;;;5011379;28;20069;-59
2021/05/29 01:25:27;;;;;;;17.33;10.52;;;;;;;;;;5012709;28;20487;-59
2021/05/29 01:27:55;;;;;;;18.23;11.07;;;;;;;;;;5010036;28;20487;-59
2021/05/29 01:30:22;;;;;;;20.50;10.65;;;;;;;;;;5010040;28;20084;-59
2021/05/29 01:32:48;;;;;;;21.58;11.20;;;;;;;;;;5009917;28;20037;-59
2021/05/29 01:35:14;;;;;;;16.73;10.32;;;;;;;;;;5008848;28;20104;-59
2021/05/29 01:37:41;;;;;;;21.08;9.93;;;;;;;;;;5011831;28;20088;-59
2021/05/29 01:40:08;;;;;;;20.05;10.73;;;;;;;;;;5011161;28;20076;-59
2021/05/29 01:42:36;;;;;;;15.95;9.52;;;;;;;;;;5007056;28;20064;-59
2021/05/29 01:45:04;;;;;;;20.15;10.88;;;;;;;;;;5009994;28;20451;-59
2021/05/29 01:47:33;;;;;;;18.98;11.43;;;;;;;;;;5011357;28;20049;-58
2021/05/29 01:50:00;;;;;;;21.52;11.55;;;;;;;;;;5010665;28;20055;-59
2021/05/29 01:52:45;;;;;;;17.65;10.60;;;;;;;;;;5012486;28;21091;-59
2021/05/29 01:55:11;;;;;;;;;;;;;;;;;;5013687;28;20691;-59
2021/05/29 01:57:38;;;;;;;16.58;9.40;;;;;;;;;;5008387;28;19925;-59
2021/05/29 02:00:04;;;;;;;16.15;10.10;;;;;;;;;;5006767;28;20053;-59
2021/05/29 02:02:38;;;;;;;18.50;10.65;;;;;;;;;;5011354;28;20451;-59
2021/05/29 02:05:09;;;;;;;16.08;9.18;;;;;;;;;;5006569;28;20117;-59
2021/05/29 02:07:35;;;;;;;15.73;9.45;;;;;;;;;;5011878;28;20113;-59
2021/05/29 02:10:02;;;;;;;16.23;10.13;;;;;;;;;;5009520;28;20492;-59
2021/05/29 02:12:28;;;;;;;17.17;9.77;;;;;;;;;;5007418;28;20073;-59
2021/05/29 02:14:54;;;;;;;17.15;10.02;;;;;;;;;;5000545;28;20050;-59
2021/05/29 02:17:21;;;;;;;13.60;8.68;;;;;;;;;;5008935;28;20074;-59
2021/05/29 02:19:47;;;;;;;19.30;9.75;;;;;;;;;;5009863;28;20056;-59
2021/05/29 02:22:13;;;;;;;14.93;9.15;;;;;;;;;;5007946;28;20048;-59
2021/05/29 02:24:40;;;;;;;17.50;9.15;;;;;;;;;;5005379;28;20073;-59
2021/05/29 02:27:06;;;;;;;17.52;9.05;;;;;;;;;;5003655;28;20072;-59
2021/05/29 02:29:32;;;;;;;15.00;9.82;;;;;;;;;;5004996;28;20069;-60
2021/05/29 02:31:59;;;;;;;13.65;9.07;;;;;;;;;;5008047;28;20065;-59
2021/05/29 02:34:25;;;;;;;14.63;9.80;;;;;;;;;;5006055;28;20057;-59
2021/05/29 02:36:51;;;;;;;13.45;8.45;;;;;;;;;;5002832;28;20048;-59
2021/05/29 02:39:18;;;;;;;12.93;8.63;;;;;;;;;;5003922;28;20061;-60
2021/05/29 02:41:44;;;;;;;16.17;8.68;;;;;;;;;;5003443;28;20038;-59
2021/05/29 02:44:10;;;;;;;16.15;9.65;;;;;;;;;;5008606;28;20046;-59
2021/05/29 02:46:36;;;;;;;14.85;8.77;;;;;;;;;;5007740;28;20077;-59
2021/05/29 02:49:03;;;;;;;12.48;8.23;;;;;;;;;;5004067;28;20559;-59
2021/05/29 02:51:29;;;;;;;13.73;8.20;;;;;;;;;;5003424;28;20069;-59
2021/05/29 02:53:55;;;;;;;16.80;8.88;;;;;;;;;;5007609;28;20050;-59
2021/05/29 02:56:21;;;;;;;14.40;8.73;;;;;;;;;;5009619;28;20460;-59
2021/05/29 02:58:48;;;;;;;13.32;7.50;;;;;;;;;;5010417;28;20104;-59
2021/05/29 03:01:14;;;;;;;16.45;8.85;;;;;;;;;;5008596;28;20076;-59
2021/05/29 03:03:40;;;;;;;14.23;9.25;;;;;;;;;;5009164;28;20065;-59
2021/05/29 03:06:07;;;;;;;13.23;8.52;;;;;;;;;;4993381;28;20045;-59
2021/05/29 03:08:34;;;;;;;11.65;6.97;;;;;;;;;;5006550;28;20450;-59
2021/05/29 03:11:00;;;;;;;11.32;6.72;;;;;;;;;;5011769;28;20065;-59
2021/05/29 03:13:26;;;;;;;11.18;7.50;;;;;;;;;;5010395;28;20522;-59
2021/05/29 03:15:53;;;;;;;12.13;7.22;;;;;;;;;;5009991;28;20045;-59
2021/05/29 03:18:19;;;;;;;11.52;7.00;;;;;;;;;;5007992;28;20046;-59
2021/05/29 03:20:46;;;;;;;11.98;7.15;;;;;;;;;;5012029;28;20416;-59
2021/05/29 03:23:12;;;;;;;9.48;6.00;;;;;;;;;;5012301;28;20532;-59
2021/05/29 03:25:38;;;;;;;10.23;6.47;;;;;;;;;;5014615;28;20088;-59
2021/05/29 03:28:05;;;;;;;10.50;6.68;;;;;;;;;;5013001;28;20084;-59
2021/05/29 03:30:31;;;;;;;10.82;5.75;;;;;;;;;;5011510;28;20080;-59
2021/05/29 03:32:58;;;;;;;8.75;5.95;;;;;;;;;;5010557;28;20045;-60
2021/05/29 03:35:24;;;;;;;7.43;5.13;;;;;;;;;;5011805;28;20496;-59
2021/05/29 03:37:51;;;;;;;9.25;5.88;;;;;;;;;;5013903;28;20085;-59
2021/05/29 03:40:17;;;;;;;9.05;5.45;;;;;;;;;;5008970;28;20093;-59
2021/05/29 03:42:44;;;;;;;7.95;5.38;;;;;;;;;;5009299;28;20085;-60
2021/05/29 03:45:12;;;;;;;9.70;5.68;;;;;;;;;;5010188;28;20049;-59
2021/05/29 03:47:39;;;;;;;7.80;5.25;;;;;;;;;;5011726;28;20046;-59
2021/05/29 03:50:06;;;;;;;8.20;5.40;;;;;;;;;;5011665;28;20069;-59
2021/05/29 03:52:32;;;;;;;8.63;5.03;;;;;;;;;;5011053;28;20094;-59
2021/05/29 03:54:59;;;;;;;9.88;4.88;;;;;;;;;;5012233;28;20045;-59
2021/05/29 03:57:25;;;;;;;7.35;5.00;;;;;;;;;;5011118;28;20050;-59
2021/05/29 03:59:51;;;;;;;11.18;4.15;;;;;;;;;;5010241;28;20078;-59
2021/05/29 04:02:18;;;;;;;11.05;5.50;;;;;;;;;;5011620;28;20053;-59
2021/05/29 04:04:44;;;;;;;7.93;5.18;;;;;;;;;;5013261;28;20050;-59
2021/05/29 04:07:10;;;;;;;8.93;5.93;;;;;;;;;;5012652;28;20108;-59
2021/05/29 04:09:36;;;;;;;8.18;4.68;;;;;;;;;;5011072;28;20045;-59
2021/05/29 04:12:03;;;;;;;6.90;4.68;;;;;;;;;;5010992;28;20056;-59
2021/05/29 04:14:30;;;;;;;8.40;4.43;;;;;;;;;;5012617;28;20073;-59
2021/05/29 04:16:56;;;;;;;10.02;5.13;;;;;;;;;;5012326;28;20104;-59
2021/05/29 04:19:22;;;;;;;7.93;4.60;;;;;;;;;;5013566;28;20054;-59
2021/05/29 04:21:49;;;;;;;9.13;4.78;;;;;;;;;;5010815;28;20082;-59
2021/05/29 04:24:15;;;;;;;8.30;4.95;;;;;;;;;;5010912;28;20053;-59
2021/05/29 04:26:41;;;;;;;7.10;4.75;;;;;;;;;;5008272;28;20046;-59
2021/05/29 04:29:08;;;;;;;11.43;4.90;;;;;;;;;;5010620;28;20133;-60
2021/05/29 04:31:34;;;;;;;7.22;4.65;;;;;;;;;;5014536;28;20046;-59
2021/05/29 04:34:01;;;;;;;6.53;4.60;;;;;;;;;;5010737;28;20052;-59
2021/05/29 04:36:27;;;;;;;8.65;5.03;;;;;;;;;;5010784;28;20424;-59
2021/05/29 04:38:53;;;;;;;5.82;4.05;;;;;;;;;;5010570;28;20045;-59
2021/05/29 04:41:21;;;;;;;11.68;4.85;;;;;;;;;;5010322;28;20137;-59
2021/05/29 04:43:48;;;;;;;7.15;4.18;;;;;;;;;;5012556;28;20061;-59
2021/05/29 04:46:14;;;;;;;8.32;4.50;;;;;;;;;;5011579;28;20542;-59
2021/05/29 04:48:40;;;;;;;6.43;4.25;;;;;;;;;;5010227;28;20054;-59
2021/05/29 04:51:14;;;;;;;7.78;5.15;;;;;;;;;;5010232;28;20042;-59
2021/05/29 04:53:41;;;;;;;8.50;4.75;;;;;;;;;;5010253;28;20042;-59
2021/05/29 04:56:08;;;;;;;6.75;4.72;;;;;;;;;;5010945;28;20070;-60
2021/05/29 04:58:36;;;;;;;7.13;4.60;;;;;;;;;;5013756;28;20500;-59
2021/05/29 05:01:03;;;;;;;6.72;4.40;;;;;;;;;;5012441;28;20050;-60
2021/05/29 05:03:29;;;;;;;8.85;4.50;;;;;;;;;;5009907;28;20475;-59
2021/05/29 05:05:55;;;;;;;8.30;4.72;;;;;;;;;;5010130;28;20041;-59
2021/05/29 05:08:21;;;;;;;6.32;4.10;;;;;;;;;;5010167;28;20050;-59
2021/05/29 05:10:49;;;;;;;6.10;3.65;;;;;;;;;;5011328;28;20066;-59
2021/05/29 05:13:15;;;;;;;6.30;3.35;;;;;;;;;;5011836;28;20073;-59
2021/05/29 05:15:41;;;;;;;8.45;4.03;;;;;;;;;;5009866;28;20053;-59
2021/05/29 05:18:08;;;;;;;8.05;4.53;;;;;;;;;;5009861;28;20042;-59
2021/05/29 05:20:36;;;;;;;6.57;4.05;;;;;;;;;;5010139;28;20088;-60
2021/05/29 05:23:02;;;;;;;6.80;3.65;;;;;;;;;;5010310;28;20045;-59
2021/05/29 05:25:29;;;;;;;7.28;3.67;;;;;;;;;;5008896;28;20085;-59
2021/05/29 05:27:55;;;;;;;5.82;3.75;;;;;;;;;;5009514;28;20046;-59
2021/05/29 05:30:22;;;;;;;5.80;3.83;;;;;;;;;;5009441;28;20076;-59
2021/05/29 05:32:49;;;;;;;7.13;3.95;;;;;;;;;;5009494;28;20411;-59
2021/05/29 05:35:16;;;;;;;7.18;3.20;;;;;;;;;;5009459;28;20053;-60
2021/05/29 05:37:43;;;;;;;6.40;3.63;;;;;;;;;;5012413;28;20846;-59
2021/05/29 05:40:10;;;;;;;7.78;3.90;;;;;;;;;;5013071;28;20069;-59
2021/05/29 05:42:37;;;;;;;6.70;4.10;;;;;;;;;;5009108;28;20045;-60
2021/05/29 05:45:04;;;;;;;5.10;3.90;;;;;;;;;;5009334;28;20041;-60
2021/05/29 05:47:31;;;;;;;5.60;4.07;;;;;;;;;;5009369;28;20108;-59
2021/05/29 05:49:57;;;;;;;6.57;4.05;;;;;;;;;;5010248;28;20050;-59
2021/05/29 05:52:24;;;;;;;5.65;3.42;;;;;;;;;;5012826;28;20049;-60
2021/05/29 05:54:50;;;;;;;6.60;3.72;;;;;;;;;;5009149;28;20135;-60
2021/05/29 05:57:16;;;;;;;6.20;4.07;;;;;;;;;;5008762;28;20073;-60
2021/05/29 05:59:43;;;;;;;4.93;3.33;;;;;;;;;;5006354;28;20038;-59
2021/05/29 06:02:09;;;;;;;5.40;3.40;;;;;;;;;;5009549;28;20096;-59
2021/05/29 06:04:35;;;;;;;5.05;3.47;;;;;;;;;;5011667;28;20050;-59
2021/05/29 06:07:02;;;;;;;6.28;4.13;;;;;;;;;;5009211;28;20484;-59
2021/05/29 06:09:29;;;;;;;7.43;4.07;;;;;;;;;;5009052;28;20105;-59
2021/05/29 06:11:56;;;;;;;5.03;3.38;;;;;;;;;;5008617;28;20038;-59
2021/05/29 06:19:53;;;;;;;4.38;3.05;;;;;;;;;;5008437;28;19971;-59
2021/05/29 06:22:20;;;;;;;6.53;4.05;;;;;;;;;;5013778;28;20498;-59
2021/05/29 06:24:46;;;;;;;6.20;3.70;;;;;;;;;;5003020;28;20103;-60
2021/05/29 06:27:12;;;;;;;8.90;3.92;;;;;;;;;;5003584;28;20503;-60
2021/05/29 06:29:39;;;;;;;4.40;3.42;;;;;;;;;;5003900;28;20050;-59
2021/05/29 06:32:07;;;;;;;4.40;2.80;;;;;;;;;;5003878;28;20095;-60
2021/05/29 06:34:33;;;;;;;4.55;2.80;;;;;;;;;;5007784;28;20056;-59
2021/05/29 06:37:00;;;;;;;4.72;2.92;;;;;;;;;;5005950;28;20463;-59
2021/05/29 06:39:26;;;;;;;4.38;2.50;;;;;;;;;;5003614;28;20559;-59
2021/05/29 06:41:52;;;;;;;4.32;2.63;;;;;;;;;;5003404;28;20038;-59
2021/05/29 06:44:19;;;;;;;5.32;3.45;;;;;;;;;;5007736;28;20066;-59
2021/05/29 06:46:45;;;;;;;6.47;2.70;;;;;;;;;;4993017;28;20054;-60
2021/05/29 06:49:13;;;;;;;3.83;2.63;;;;;;;;;;4996668;28;20058;-60
2021/05/29 06:51:52;;;;;;;4.00;2.95;;;;;;;;;;4997068;28;20053;-60
2021/05/29 06:59:33;;;;;;;3.72;2.60;;;;;;;;;;5008761;28;20274;-60
2021/05/29 07:01:59;;;;;;;6.10;2.63;;;;;;;;;;4993372;28;20058;-60
2021/05/29 07:04:26;;;;;;;4.53;2.75;;;;;;;;;;4996582;28;20050;-59
2021/05/29 07:06:52;;;;;;;7.10;2.70;;;;;;;;;;4997021;28;20559;-60
2021/05/29 07:09:20;;;;;;;3.58;2.28;;;;;;;;;;4997038;28;20053;-60
2021/05/29 07:11:47;;;;;;;3.17;1.95;;;;;;;;;;4996887;28;20553;-60
2021/05/29 07:14:13;;;;;;;2.47;1.60;;;;;;;;;;4993905;28;20141;-59
2021/05/29 07:16:42;;;;;;;3.08;1.85;;;;;;;;;;5010291;28;20049;-59
2021/05/29 07:19:08;;;;;;;2.65;1.65;;;;;;;;;;5009233;28;20100;-59
2021/05/29 07:21:36;;;;;;;3.38;1.83;;;;;;;;;;5009569;28;20046;-59
2021/05/29 07:24:02;;;;;;;3.08;2.05;;;;;;;;;;5008250;28;20054;-60
2021/05/29 07:26:29;;;;;;;5.95;2.38;;;;;;;;;;5008107;28;20503;-60
2021/05/29 07:28:55;;;;;;;4.80;2.38;;;;;;;;;;5010358;28;20148;-60
2021/05/29 07:31:22;;;;;;;4.43;2.22;;;;;;;;;;5010418;28;20057;-60
2021/05/29 07:33:50;;;;;;;4.00;2.17;;;;;;;;;;5008065;28;20057;-59
2021/05/29 07:36:17;;;;;;;4.75;2.38;;;;;;;;;;5007376;28;20125;-60
2021/05/29 07:38:44;;;;;;;5.40;2.92;;;;;;;;;;5012220;28;20081;-59
2021/05/29 07:41:11;;;;;;;2.88;2.22;;;;;;;;;;5013376;28;20069;-60
2021/05/29 07:43:37;;;;;;;5.85;2.58;;;;;;;;;;5014554;28;20091;-60
2021/05/29 07:46:05;;;;;;;3.47;2.50;;;;;;;;;;5013464;28;20072;-60
2021/05/29 07:48:33;;;;;;;5.47;2.25;;;;;;;;;;5013066;28;20054;-60
2021/05/29 07:51:05;;;;;;;4.15;2.33;;;;;;;;;;5013075;28;20065;-60
2021/05/29 07:53:36;;;;;;;3.33;2.15;;;;;;;;;;5013404;28;20057;-60
2021/05/29 07:56:04;;;;;;;3.45;2.00;;;;;;;;;;5012814;28;20034;-59
2021/05/29 07:58:30;;;;;;;3.72;2.05;;;;;;;;;;5010668;28;20496;-60
2021/05/29 08:00:57;;;;;;;4.82;2.20;;;;;;;;;;5012384;28;20073;-60
2021/05/29 08:03:24;;;;;;;6.70;2.65;;;;;;;;;;5010070;28;20066;-58
2021/05/29 08:05:52;;;;;;;4.05;2.30;;;;;;;;;;5015817;28;20038;-59
2021/05/29 08:08:19;;;;;;;4.22;2.63;;;;;;;;;;5010189;28;20073;-58
2021/05/29 08:10:48;;;;;;;2.85;2.17;;;;;;;;;;5010350;28;20050;-60
2021/05/29 08:13:14;;;;;;;3.17;2.05;;;;;;;;;;5012370;28;20511;-59
2021/05/29 08:15:42;;;;;;;3.50;1.80;;;;;;;;;;5009400;28;20132;-59
2021/05/29 08:18:09;;;;;;;5.53;1.70;;;;;;;;;;5011129;28;20049;-58
2021/05/29 08:20:36;;;;;;;2.50;1.58;;;;;;;;;;5011680;28;20054;-60
2021/05/29 08:23:03;;;;;;;5.45;2.10;;;;;;;;;;5013662;28;20100;-59
2021/05/29 08:25:29;;;;;;;5.82;2.10;;;;;;;;;;5014703;28;20145;-59
2021/05/29 08:27:56;;;;;;;4.25;2.17;;;;;;;;;;5013202;28;20050;-59
2021/05/29 08:30:22;;;;;;;3.78;2.28;;;;;;;;;;5013566;28;20084;-59
2021/05/29 08:32:48;;;;;;;4.60;2.25;;;;;;;;;;5012192;28;20072;-58
2021/05/29 08:35:15;;;;;;;4.32;2.35;;;;;;;;;;5013219;28;20457;-58
2021/05/29 08:37:44;;;;;;;5.43;2.60;;;;;;;;;;5013380;28;20065;-58
2021/05/29 08:40:11;;;;;;;2.85;2.17;;;;;;;;;;5013055;28;20519;-59
2021/05/29 08:42:37;;;;;;;5.55;2.53;;;;;;;;;;5013852;28;20133;-59
2021/05/29 08:45:04;;;;;;;3.63;2.00;;;;;;;;;;5013365;28;20081;-59
2021/05/29 08:47:31;;;;;;;3.70;2.20;;;;;;;;;;5012526;28;20052;-59
2021/05/29 08:49:57;;;;;;;3.58;2.38;;;;;;;;;;5013052;28;20058;-60
2021/05/29 08:52:23;;;;;;;3.88;2.13;;;;;;;;;;5013850;28;20511;-60
2021/05/29 08:54:50;;;;;;;3.72;2.25;;;;;;;;;;5013368;28;20558;-60
2021/05/29 08:57:19;;;;;;;3.85;2.22;;;;;;;;;;5013346;28;20057;-58
2021/05/29 08:59:47;;;;;;;4.28;2.60;;;;;;;;;;5012950;28;20124;-60
2021/05/29 09:02:13;;;;;;;3.97;2.28;;;;;;;;;;5012249;28;20136;-60
2021/05/29 09:04:58;;;;;;;4.38;2.65;;;;;;;;;;5013061;28;20042;-60
2021/05/29 09:07:25;;;;;;;;;;;;;;;;;;5012340;28;20046;-59
2021/05/29 09:10:11;;;;;;;3.15;2.15;;;;;;;;;;5011106;28;19921;-60
2021/05/29 09:12:37;;;;;;;4.57;2.00;;;;;;;;;;5012679;28;20112;-59
2021/05/29 09:15:04;;;;;;;4.43;2.40;;;;;;;;;;5011685;28;20061;-59
2021/05/29 09:17:30;;;;;;;3.67;2.40;;;;;;;;;;5012577;28;20040;-59
2021/05/29 09:20:02;;;;;;;4.00;2.00;;;;;;;;;;5012324;28;20108;-59
2021/05/29 09:22:34;;;;;;;3.90;2.25;;;;;;;;;;5013681;28;20057;-59
2021/05/29 09:25:06;;;;;;;2.72;2.13;;;;;;;;;;5010393;28;20042;-59
2021/05/29 09:27:33;;;;;;;6.32;2.08;;;;;;;;;;5011986;28;20561;-60
2021/05/29 09:30:00;;;;;;;4.30;2.38;;;;;;;;;;5010826;28;20412;-60
2021/05/29 09:32:26;;;;;;;2.60;1.92;;;;;;;;;;5013066;28;20432;-58
2021/05/29 09:34:53;;;;;;;4.65;2.20;;;;;;;;;;5009717;28;20107;-59
2021/05/29 09:37:20;;;;;;;3.00;2.10;;;;;;;;;;5012598;28;20057;-59
2021/05/29 09:39:48;;;;;;;4.65;1.88;;;;;;;;;;5011994;28;20131;-59
2021/05/29 09:42:15;;;;;;;3.00;2.10;;;;;;;;;;5010963;28;20499;-59
2021/05/29 09:44:41;;;;;;;2.38;1.52;;;;;;;;;;5012075;28;20072;-60
2021/05/29 09:47:09;;;;;;;4.00;2.30;;;;;;;;;;5011329;28;20050;-60
2021/05/29 09:50:04;;;;;;;7.03;2.40;;;;;;;;;;5013018;28;20050;-60
2021/05/29 09:52:36;;;;;;;3.22;2.03;;;;;;;;;;5008318;28;20081;-60
2021/05/29 09:55:02;;;;;;;3.42;2.08;;;;;;;;;;5012553;28;20054;-60
2021/05/29 09:57:28;;;;;;;3.50;2.25;;;;;;;;;;5011507;28;20046;-59
2021/05/29 10:00:04;;;;;;;3.42;1.90;;;;;;;;;;5010134;28;20404;-60
2021/05/29 10:02:33;;;;;;;3.08;2.05;;;;;;;;;;5011859;28;20045;-60
2021/05/29 10:04:59;;;;;;;3.90;2.30;;;;;;;;;;5011803;28;20073;-60
2021/05/29 10:07:38;;;;;;;2.85;1.98;;;;;;;;;;5012842;28;20054;-60
2021/05/29 10:10:05;;;;;;;6.90;2.63;;;;;;;;;;5011766;28;20081;-60
2021/05/29 10:12:32;;;;;;;3.78;2.50;;;;;;;;;;5011958;28;20050;-60
2021/05/29 10:14:58;;;;;;;4.45;2.38;;;;;;;;;;5011773;28;20095;-60
2021/05/29 10:17:25;;;;;;;4.18;2.47;;;;;;;;;;5011500;28;20057;-61
2021/05/29 10:19:52;;;;;;;3.95;2.17;;;;;;;;;;5011945;28;20053;-60
2021/05/29 10:22:19;;;;;;;6.50;2.60;;;;;;;;;;5010527;28;20097;-61
2021/05/29 10:24:49;;;;;;;3.95;2.83;;;;;;;;;;5010544;28;20080;-61
2021/05/29 10:27:24;;;;;;;4.47;2.67;;;;;;;;;;5011279;28;20066;-61
2021/05/29 10:29:54;;;;;;;6.03;2.40;;;;;;;;;;5011528;28;20043;-61
2021/05/29 10:32:20;;;;;;;3.03;2.50;;;;;;;;;;5011527;28;20111;-61
2021/05/29 10:34:50;;;;;;;3.80;2.67;;;;;;;;;;5011539;28;20465;-61
2021/05/29 10:37:26;;;;;;;3.47;2.42;;;;;;;;;;5010006;28;20050;-60
2021/05/29 10:39:52;;;;;;;2.65;2.22;;;;;;;;;;5010251;28;20139;-60
2021/05/29 10:42:31;;;;;;;4.35;2.53;;;;;;;;;;5011345;28;20127;-60
2021/05/29 10:45:18;;;;;;;4.35;1.85;;;;;;;;;;5011624;28;20050;-60
2021/05/29 10:48:00;;;;;;;2.90;1.90;;;;;;;;;;5011502;28;20072;-59
2021/05/29 10:51:04;;;;;;;3.78;2.42;;;;;;;;;;5010147;28;20133;-59
2021/05/29 10:53:49;;;;;;;3.03;2.20;;;;;;;;;;5010041;28;20054;-59
2021/05/29 10:56:16;;;;;;;3.35;1.95;;;;;;;;;;5011418;28;20072;-59
2021/05/29 10:59:01;;;;;;;2.78;1.77;;;;;;;;;;5011629;28;20077;-60
2021/05/29 11:01:37;;;;;;;3.78;1.70;;;;;;;;;;5011650;28;20049;-59
2021/05/29 11:04:13;;;;;;;3.35;1.77;;;;;;;;;;5011192;28;20081;-59
2021/05/29 11:06:41;;;;;;;2.55;1.50;;;;;;;;;;5011116;28;20530;-61
2021/05/29 11:09:08;;;;;;;4.60;1.52;;;;;;;;;;5011334;28;20131;-61
2021/05/29 11:11:42;;;;;;;3.65;1.70;;;;;;;;;;5013652;28;20517;-60
2021/05/29 11:14:16;;;;;;;2.35;1.67;;;;;;;;;;4998789;28;20045;-61
2021/05/29 11:17:02;;;;;;;1.63;1.00;;;;;;;;;;5013626;28;20131;-60
2021/05/29 11:19:29;;;;;;;2.25;1.20;;;;;;;;;;5010182;28;20081;-60
2021/05/29 11:22:16;;;;;;;2.33;1.35;;;;;;;;;;5013353;28;20042;-59
2021/05/29 11:24:44;;;;;;;1.67;1.13;;;;;;;;;;5013699;28;20058;-59
2021/05/29 11:27:15;;;;;;;3.15;1.15;;;;;;;;;;5014941;28;20133;-60
2021/05/29 11:30:00;;;;;;;2.38;1.25;;;;;;;;;;5014836;28;20046;-60
2021/05/29 11:32:41;;;;;;;2.53;1.38;;;;;;;;;;5015138;28;20061;-59
2021/05/29 11:35:08;;;;;;;2.58;1.30;;;;;;;;;;5000046;28;20046;-58
2021/05/29 11:37:34;;;;;;;2.83;1.42;;;;;;;;;;5011572;28;20050;-60
2021/05/29 11:40:01;;;;;;;3.35;1.75;;;;;;;;;;5015109;28;20049;-60
2021/05/29 11:42:27;;;;;;;3.67;1.85;;;;;;;;;;5015093;28;20046;-59
2021/05/29 11:45:13;;;;;;;2.65;1.70;;;;;;;;;;5014916;28;20467;-59
2021/05/29 11:47:39;;;;;;;2.63;1.60;;;;;;;;;;5014672;28;20514;-60
2021/05/29 11:50:06;;;;;;;2.00;1.38;;;;;;;;;;4999595;28;20045;-60
2021/05/29 11:52:32;;;;;;;2.40;1.42;;;;;;;;;;5015518;28;20088;-61
2021/05/29 11:54:58;;;;;;;2.80;1.60;;;;;;;;;;5014703;28;20073;-60
2021/05/29 11:57:25;;;;;;;4.20;1.63;;;;;;;;;;5014649;28;20116;-61
2021/05/29 11:59:51;;;;;;;10.50;2.05;;;;;;;;;;5014433;28;20041;-61
2021/05/29 12:02:17;;;;;;;2.60;1.60;;;;;;;;;;5014678;28;20495;-61
2021/05/29 12:04:51;;;;;;;2.22;1.67;;;;;;;;;;5014956;28;20077;-60
2021/05/29 12:07:17;;;;;;;4.78;1.88;;;;;;;;;;5013012;28;20415;-60
2021/05/29 12:09:44;;;;;;;2.70;1.80;;;;;;;;;;5014400;28;20555;-60
2021/05/29 12:12:12;;;;;;;4.03;1.80;;;;;;;;;;5014791;28;20073;-59
2021/05/29 12:14:42;;;;;;;3.22;1.92;;;;;;;;;;5014429;28;20042;-59
2021/05/29 12:17:15;;;;;;;2.40;1.70;;;;;;;;;;4997332;28;20053;-59
2021/05/29 12:19:41;;;;;;;3.72;2.08;;;;;;;;;;5014666;28;20081;-59
2021/05/29 12:22:12;;;;;;;3.92;1.80;;;;;;;;;;5014128;28;20133;-60
2021/05/29 12:24:42;;;;;;;2.60;1.70;;;;;;;;;;5014294;28;20050;-59
2021/05/29 12:27:10;;;;;;;3.03;1.98;;;;;;;;;;5013828;28;20042;-59
2021/05/29 12:29:38;;;;;;;2.60;1.70;;;;;;;;;;5014220;28;20042;-60
2021/05/29 12:32:05;;;;;;;2.53;1.70;;;;;;;;;;5013148;28;20049;-59
2021/05/29 12:34:31;;;;;;;2.70;1.88;;;;;;;;;;5014709;28;20516;-60
2021/05/29 12:37:07;;;;;;;2.22;1.45;;;;;;;;;;5013879;28;20070;-60
2021/05/29 12:39:49;;;;;;;2.75;1.73;;;;;;;;;;5013822;28;20093;-60
2021/05/29 12:42:27;;;;;;;3.00;1.83;;;;;;;;;;5013810;28;20523;-61
2021/05/29 12:44:55;;;;;;;3.63;2.10;;;;;;;;;;5014073;28;20066;-62
2021/05/29 12:47:23;;;;;;;2.55;1.63;;;;;;;;;;5012820;28;20069;-60
2021/05/29 12:49:50;;;;;;;1.88;1.45;;;;;;;;;;5012498;28;20048;-61
2021/05/29 12:52:26;;;;;;;2.40;1.60;;;;;;;;;;5014380;28;20042;-61
2021/05/29 12:54:53;;;;;;;2.45;1.60;;;;;;;;;;5013894;28;20054;-59
2021/05/29 12:57:20;;;;;;;2.00;1.40;;;;;;;;;;5013245;28;20096;-60
2021/05/29 12:59:48;;;;;;;6.90;1.90;;;;;;;;;;5013433;28;20495;-59
2021/05/29 13:07:47;;;;;;;4.75;1.70;;;;;;;;;;5010715;28;20050;-60
2021/05/29 13:12:41;;;;;;;2.20;1.40;;;;;;;;;;5010411;28;20049;-61
2021/05/29 13:15:17;;;;;;;4.40;1.60;;;;;;;;;;5013466;28;20046;-60
2021/05/29 13:17:43;;;;;;;2.90;1.70;;;;;;;;;;5012862;28;20104;-58
2021/05/29 13:20:22;;;;;;;2.30;1.60;;;;;;;;;;5013462;28;20123;-60
2021/05/29 13:22:58;;;;;;;3.83;1.90;;;;;;;;;;5013486;28;20046;-60
2021/05/29 13:25:24;;;;;;;4.00;1.63;;;;;;;;;;5012406;28;20054;-59
2021/05/29 13:27:53;;;;;;;3.05;1.90;;;;;;;;;;5012859;28;20518;-60
2021/05/29 13:30:21;;;;;;;2.63;1.83;;;;;;;;;;5013114;28;20379;-59
2021/05/29 13:32:50;;;;;;;2.33;1.70;;;;;;;;;;5012448;28;20038;-61
2021/05/29 13:35:18;;;;;;;2.03;1.10;;;;;;;;;;5012101;28;20077;-61
2021/05/29 13:37:45;;;;;;;1.90;1.10;;;;;;;;;;5011657;28;20395;-60
2021/05/29 13:40:11;;;;;;;2.13;1.30;;;;;;;;;;5008699;28;20468;-61
2021/05/29 13:42:38;;;;;;;1.95;1.13;;;;;;;;;;5009555;28;20147;-59
2021/05/29 13:45:10;;;;;;;3.08;1.67;;;;;;;;;;5012867;28;20129;-59
2021/05/29 13:47:36;;;;;;;3.83;1.27;;;;;;;;;;5012603;28;20484;-60
2021/05/29 13:50:03;;;;;;;1.92;1.42;;;;;;;;;;5012838;28;20050;-58
2021/05/29 13:52:29;;;;;;;2.28;1.58;;;;;;;;;;5013255;28;20575;-60
2021/05/29 13:54:55;;;;;;;1.98;1.40;;;;;;;;;;5012574;28;20046;-59
2021/05/29 13:57:22;;;;;;;2.60;1.50;;;;;;;;;;5012543;28;20061;-59
2021/05/29 13:59:48;;;;;;;2.78;1.92;;;;;;;;;;5012307;28;20042;-59
2021/05/29 14:02:14;;;;;;;4.82;1.92;;;;;;;;;;5012737;28;20041;-60
2021/05/29 14:04:41;;;;;;;2.33;1.50;;;;;;;;;;5012845;28;20100;-60
2021/05/29 14:07:07;;;;;;;2.53;1.40;;;;;;;;;;5012817;28;20047;-61
2021/05/29 14:09:33;;;;;;;2.25;1.38;;;;;;;;;;5012151;28;20050;-59
2021/05/29 14:12:00;;;;;;;2.42;1.75;;;;;;;;;;5012493;28;20076;-61
2021/05/29 14:14:26;;;;;;;1.80;1.30;;;;;;;;;;5011162;28;20073;-60
2021/05/29 14:16:52;;;;;;;2.90;1.25;;;;;;;;;;5012520;28;20042;-59
2021/05/29 14:19:19;;;;;;;2.08;1.20;;;;;;;;;;5010939;28;20096;-58
2021/05/29 14:21:45;;;;;;;1.98;1.25;;;;;;;;;;5012036;28;20077;-59
2021/05/29 14:24:11;;;;;;;2.25;1.30;;;;;;;;;;5012158;28;20167;-60
2021/05/29 14:26:38;;;;;;;5.55;1.33;;;;;;;;;;5012180;28;20068;-58
2021/05/29 14:29:06;;;;;;;2.97;1.60;;;;;;;;;;5012087;28;20042;-60
2021/05/29 14:31:32;;;;;;;2.53;1.50;;;;;;;;;;5012911;28;20046;-60
2021/05/29 14:34:00;;;;;;;2.60;1.40;;;;;;;;;;5012104;28;20085;-58
2021/05/29 14:36:26;;;;;;;2.75;1.40;;;;;;;;;;5011942;28;20565;-59
2021/05/29 14:38:54;;;;;;;1.80;1.17;;;;;;;;;;5010787;28;20084;-59
2021/05/29 14:41:20;;;;;;;3.08;1.63;;;;;;;;;;5012243;28;20061;-58
2021/05/29 14:43:47;;;;;;;4.80;1.88;;;;;;;;;;5012158;28;20050;-59
2021/05/29 14:46:13;;;;;;;1.83;1.25;;;;;;;;;;5016526;28;20057;-59
2021/05/29 14:48:39;;;;;;;2.00;1.38;;;;;;;;;;5015915;28;20503;-59
2021/05/29 14:51:16;;;;;;;2.90;1.48;;;;;;;;;;5014816;28;20046;-60
2021/05/29 14:53:44;;;;;;;2.42;1.92;;;;;;;;;;5015707;28;20046;-58
2021/05/29 14:56:10;;;;;;;2.17;1.27;;;;;;;;;;5015926;28;20480;-59
2021/05/29 14:58:36;;;;;;;2.08;1.08;;;;;;;;;;5016681;28;20054;-60
2021/05/29 15:01:03;;;;;;;4.50;1.25;;;;;;;;;;5015939;28;20054;-59
2021/05/29 15:03:33;;;;;;;2.00;1.38;;;;;;;;;;5015813;28;20053;-59